Jacksonville, AL

10:48 AM CDT on July 01, 2015 (GMT -0500)
Angel Community | | Change Station
CLOSE
Current Station
Personal Weather Station
Location: Jacksonville, AL
Elevation: 629 ft
Nearby Weather Stations

Elev 629 ft 33.84 °N, 85.83 °W | Updated 3 seconds ago

Mostly Cloudy
Mostly Cloudy
77.2 °F
Feels Like 79 °F
N
0.0
Wind Variable Wind from WSW
Gusts 1.0 mph

Today
High -- | Low -- °F
--% Chance of Precip.
Yesterday
High -- | Low -- °F
Precip. -- in
5:35 AM 7:57 PM
Full, 100% visible
Pressure 30.08 in
Visibility 9.0 miles
Clouds Scattered Clouds 1500 ft
Heat Index 79 °F
Dew Point 72 °F
Humidity 84%
Rainfall 0.00 in
Snow Depth Not available.
UV 8 out of 12
Pollen 2.80 out of 12
Air Quality Not available.
Flu Activity Not available.
SPECI KANB 011531Z AUTO 24007KT 9SM SCT015 26/21 A3008 RMK AO2 T02560206

More Conditions Fewer Conditions

Pressure 30.08 in
Visibility 9.0 miles
Clouds Scattered Clouds 1500 ft
Heat Index 79 °F
Dew Point 72 °F
Humidity 84%
Rainfall 0.00 in
Snow Depth Not available.
UV 8 out of 12
Pollen 2.80 out of 12
Air Quality Not available.
Flu Activity Not available.
SPECI KANB 011531Z AUTO 24007KT 9SM SCT015 26/21 A3008 RMK AO2 T02560206

More Conditions Fewer Conditions

10-Day Weather Forecast

×

Almanac

Astronomy

Jul. 01, 2015 Rise Set
Actual Time
Civil Twilight
Nautical Twilight
Astronomical Twilight
Moon
Length of Visible Light
Length of Day
Tomorrow will be .
, % of the Moon is Illuminated

Today's Extremes

State Highs State Lows

Community

WunderPhotos

Upload Photos

1,834,232 photos uploaded!

WunderBlogs® & News

Nearby

Air Quality

  Air Quality AQ Index Pollutant
Not available.

Snow Depth

Station Depth Elevation

Earthquake Activity

City Distance Mag. Time & Date
Minimum magnitude displayed is 2.5.

Coastal Water Temperatures

Place Temperature

Stations

Nearby Weather Stations

Station Location Temp. Windchill Dew Point Humidity Wind Precip. Elev Updated Type